sensor_id;sensor_type;location;lat;lon;timestamp;temperature;humidity
6986;DHT22;3533;51.246;6.850;2022-09-13T00:00:36;24.40;44.80
6986;DHT22;3533;51.246;6.850;2022-09-13T00:03:02;24.40;44.80
6986;DHT22;3533;51.246;6.850;2022-09-13T00:05:29;24.40;44.70
6986;DHT22;3533;51.246;6.850;2022-09-13T00:07:55;24.40;44.80
6986;DHT22;3533;51.246;6.850;2022-09-13T00:10:21;24.40;44.80
6986;DHT22;3533;51.246;6.850;2022-09-13T00:12:47;24.40;44.80
6986;DHT22;3533;51.246;6.850;2022-09-13T00:15:13;24.40;44.80
6986;DHT22;3533;51.246;6.850;2022-09-13T00:17:39;24.40;44.70
6986;DHT22;3533;51.246;6.850;2022-09-13T00:20:05;24.40;44.80
6986;DHT22;3533;51.246;6.850;2022-09-13T00:22:31;24.40;44.80
6986;DHT22;3533;51.246;6.850;2022-09-13T00:24:57;24.40;44.80
6986;DHT22;3533;51.246;6.850;2022-09-13T00:27:22;24.40;44.80
6986;DHT22;3533;51.246;6.850;2022-09-13T00:29:48;24.40;44.80
6986;DHT22;3533;51.246;6.850;2022-09-13T00:32:13;24.40;44.80
6986;DHT22;3533;51.246;6.850;2022-09-13T00:34:39;24.40;44.80
6986;DHT22;3533;51.246;6.850;2022-09-13T00:37:05;24.40;44.80
6986;DHT22;3533;51.246;6.850;2022-09-13T00:39:30;24.40;44.80
6986;DHT22;3533;51.246;6.850;2022-09-13T00:41:57;24.40;44.80
6986;DHT22;3533;51.246;6.850;2022-09-13T00:44:46;24.40;44.80
6986;DHT22;3533;51.246;6.850;2022-09-13T00:47:17;24.40;44.70
6986;DHT22;3533;51.246;6.850;2022-09-13T00:49:44;24.40;44.80
6986;DHT22;3533;51.246;6.850;2022-09-13T00:52:14;24.40;44.80
6986;DHT22;3533;51.246;6.850;2022-09-13T00:54:49;24.40;44.70
6986;DHT22;3533;51.246;6.850;2022-09-13T00:57:17;24.40;44.70
6986;DHT22;3533;51.246;6.850;2022-09-13T00:59:58;24.40;44.80
6986;DHT22;3533;51.246;6.850;2022-09-13T01:02:26;24.40;44.80
6986;DHT22;3533;51.246;6.850;2022-09-13T01:04:53;24.40;44.70
6986;DHT22;3533;51.246;6.850;2022-09-13T01:07:18;24.40;44.80
6986;DHT22;3533;51.246;6.850;2022-09-13T01:09:46;24.40;44.70
6986;DHT22;3533;51.246;6.850;2022-09-13T01:12:36;24.40;44.70
6986;DHT22;3533;51.246;6.850;2022-09-13T01:15:05;24.40;44.70
6986;DHT22;3533;51.246;6.850;2022-09-13T01:17:33;24.40;44.70
6986;DHT22;3533;51.246;6.850;2022-09-13T01:20:00;24.40;44.70
6986;DHT22;3533;51.246;6.850;2022-09-13T01:28:44;24.40;44.70
6986;DHT22;3533;51.246;6.850;2022-09-13T01:34:27;24.40;44.70
6986;DHT22;3533;51.246;6.850;2022-09-13T01:48:21;24.40;44.70
6986;DHT22;3533;51.246;6.850;2022-09-13T01:51:08;24.40;44.70
6986;DHT22;3533;51.246;6.850;2022-09-13T01:56:50;24.40;44.70
6986;DHT22;3533;51.246;6.850;2022-09-13T01:59:31;24.40;44.70
6986;DHT22;3533;51.246;6.850;2022-09-13T02:02:04;24.30;44.70
6986;DHT22;3533;51.246;6.850;2022-09-13T02:04:36;24.40;45.60
6986;DHT22;3533;51.246;6.850;2022-09-13T02:07:09;24.40;44.80
6986;DHT22;3533;51.246;6.850;2022-09-13T02:09:42;24.40;44.80
6986;DHT22;3533;51.246;6.850;2022-09-13T02:12:19;24.40;44.80
6986;DHT22;3533;51.246;6.850;2022-09-13T02:14:55;24.40;44.70
6986;DHT22;3533;51.246;6.850;2022-09-13T02:17:25;24.40;44.80
6986;DHT22;3533;51.246;6.850;2022-09-13T02:20:01;24.40;44.70
6986;DHT22;3533;51.246;6.850;2022-09-13T02:22:34;24.40;44.80
6986;DHT22;3533;51.246;6.850;2022-09-13T02:25:06;24.40;44.80
6986;DHT22;3533;51.246;6.850;2022-09-13T02:27:34;24.40;44.70
6986;DHT22;3533;51.246;6.850;2022-09-13T02:30:07;24.40;44.80
6986;DHT22;3533;51.246;6.850;2022-09-13T02:32:53;24.40;44.80
6986;DHT22;3533;51.246;6.850;2022-09-13T02:35:31;24.40;44.70
6986;DHT22;3533;51.246;6.850;2022-09-13T02:38:02;24.40;44.70
6986;DHT22;3533;51.246;6.850;2022-09-13T02:40:37;24.30;44.70
6986;DHT22;3533;51.246;6.850;2022-09-13T02:43:16;24.40;44.80
6986;DHT22;3533;51.246;6.850;2022-09-13T02:46:10;24.40;44.70
6986;DHT22;3533;51.246;6.850;2022-09-13T02:48:53;24.40;44.70
6986;DHT22;3533;51.246;6.850;2022-09-13T02:54:21;24.30;44.60
6986;DHT22;3533;51.246;6.850;2022-09-13T02:59:23;24.40;44.80
6986;DHT22;3533;51.246;6.850;2022-09-13T03:04:23;24.30;44.70
6986;DHT22;3533;51.246;6.850;2022-09-13T03:06:49;24.30;44.70
6986;DHT22;3533;51.246;6.850;2022-09-13T03:09:15;24.30;44.70
6986;DHT22;3533;51.246;6.850;2022-09-13T03:12:10;24.40;44.80
6986;DHT22;3533;51.246;6.850;2022-09-13T03:15:20;24.30;44.70
6986;DHT22;3533;51.246;6.850;2022-09-13T03:23:54;24.30;44.70
6986;DHT22;3533;51.246;6.850;2022-09-13T03:29:30;24.30;44.80
6986;DHT22;3533;51.246;6.850;2022-09-13T03:34:54;24.30;44.70
6986;DHT22;3533;51.246;6.850;2022-09-13T03:40:12;24.30;44.70
6986;DHT22;3533;51.246;6.850;2022-09-13T03:42:52;24.30;44.70
6986;DHT22;3533;51.246;6.850;2022-09-13T03:45:24;24.30;44.70
6986;DHT22;3533;51.246;6.850;2022-09-13T03:47:51;24.30;44.80
6986;DHT22;3533;51.246;6.850;2022-09-13T03:50:19;24.30;44.70
6986;DHT22;3533;51.246;6.850;2022-09-13T03:52:47;24.30;44.70
6986;DHT22;3533;51.246;6.850;2022-09-13T03:55:20;24.40;44.80
6986;DHT22;3533;51.246;6.850;2022-09-13T03:57:46;24.30;44.70
6986;DHT22;3533;51.246;6.850;2022-09-13T04:00:13;24.30;44.70
6986;DHT22;3533;51.246;6.850;2022-09-13T04:02:39;24.40;44.80
6986;DHT22;3533;51.246;6.850;2022-09-13T04:05:05;24.40;44.80
6986;DHT22;3533;51.246;6.850;2022-09-13T04:07:31;24.30;44.70
6986;DHT22;3533;51.246;6.850;2022-09-13T04:09:56;24.40;44.80
6986;DHT22;3533;51.246;6.850;2022-09-13T04:12:22;24.40;44.80
6986;DHT22;3533;51.246;6.850;2022-09-13T04:14:48;24.40;44.70
6986;DHT22;3533;51.246;6.850;2022-09-13T04:17:13;24.40;44.80
6986;DHT22;3533;51.246;6.850;2022-09-13T04:19:39;24.40;44.80
6986;DHT22;3533;51.246;6.850;2022-09-13T04:22:05;24.40;44.70
6986;DHT22;3533;51.246;6.850;2022-09-13T04:24:31;24.40;44.80
6986;DHT22;3533;51.246;6.850;2022-09-13T04:26:57;24.40;44.80
6986;DHT22;3533;51.246;6.850;2022-09-13T04:29:24;24.40;44.70
6986;DHT22;3533;51.246;6.850;2022-09-13T04:31:52;24.40;44.70
6986;DHT22;3533;51.246;6.850;2022-09-13T04:34:18;24.40;45.50
6986;DHT22;3533;51.246;6.850;2022-09-13T04:36:46;24.40;44.30
6986;DHT22;3533;51.246;6.850;2022-09-13T04:39:12;24.50;44.30
6986;DHT22;3533;51.246;6.850;2022-09-13T04:41:44;24.50;44.30
6986;DHT22;3533;51.246;6.850;2022-09-13T04:44:11;24.50;44.30
6986;DHT22;3533;51.246;6.850;2022-09-13T04:46:37;24.50;44.30
6986;DHT22;3533;51.246;6.850;2022-09-13T04:49:03;24.50;44.30
6986;DHT22;3533;51.246;6.850;2022-09-13T04:51:28;24.50;44.40
6986;DHT22;3533;51.246;6.850;2022-09-13T04:53:54;24.50;44.40
6986;DHT22;3533;51.246;6.850;2022-09-13T04:56:22;24.50;44.40
6986;DHT22;3533;51.246;6.850;2022-09-13T04:58:52;24.50;44.40
6986;DHT22;3533;51.246;6.850;2022-09-13T05:01:18;24.50;44.40
6986;DHT22;3533;51.246;6.850;2022-09-13T05:03:44;24.50;44.50
6986;DHT22;3533;51.246;6.850;2022-09-13T05:06:12;24.50;44.50
6986;DHT22;3533;51.246;6.850;2022-09-13T05:08:38;24.50;44.50
6986;DHT22;3533;51.246;6.850;2022-09-13T05:11:05;24.50;44.50
6986;DHT22;3533;51.246;6.850;2022-09-13T05:13:31;24.50;44.50
6986;DHT22;3533;51.246;6.850;2022-09-13T05:16:02;24.50;44.50
6986;DHT22;3533;51.246;6.850;2022-09-13T05:18:29;24.50;44.50
6986;DHT22;3533;51.246;6.850;2022-09-13T05:20:56;24.50;44.50
6986;DHT22;3533;51.246;6.850;2022-09-13T05:23:23;24.50;44.50
6986;DHT22;3533;51.246;6.850;2022-09-13T05:26:00;24.50;44.60
6986;DHT22;3533;51.246;6.850;2022-09-13T05:28:30;24.50;44.60
6986;DHT22;3533;51.246;6.850;2022-09-13T05:31:14;24.50;44.60
6986;DHT22;3533;51.246;6.850;2022-09-13T05:33:41;24.50;44.50
6986;DHT22;3533;51.246;6.850;2022-09-13T05:36:06;24.50;44.60
6986;DHT22;3533;51.246;6.850;2022-09-13T05:38:33;24.50;44.60
6986;DHT22;3533;51.246;6.850;2022-09-13T05:41:00;24.50;44.60
6986;DHT22;3533;51.246;6.850;2022-09-13T05:43:28;24.50;44.60
6986;DHT22;3533;51.246;6.850;2022-09-13T05:46:09;24.50;44.60
6986;DHT22;3533;51.246;6.850;2022-09-13T05:48:35;24.50;44.60
6986;DHT22;3533;51.246;6.850;2022-09-13T05:53:30;24.50;44.70
6986;DHT22;3533;51.246;6.850;2022-09-13T05:55:56;24.50;44.60
6986;DHT22;3533;51.246;6.850;2022-09-13T05:58:22;24.50;44.60
6986;DHT22;3533;51.246;6.850;2022-09-13T06:00:55;24.50;44.60
6986;DHT22;3533;51.246;6.850;2022-09-13T06:03:22;24.50;44.60
6986;DHT22;3533;51.246;6.850;2022-09-13T06:05:47;24.50;44.70
6986;DHT22;3533;51.246;6.850;2022-09-13T06:08:13;24.50;44.60
6986;DHT22;3533;51.246;6.850;2022-09-13T06:10:39;24.50;44.70
6986;DHT22;3533;51.246;6.850;2022-09-13T06:13:05;24.50;44.70
6986;DHT22;3533;51.246;6.850;2022-09-13T06:15:30;24.50;44.60
6986;DHT22;3533;51.246;6.850;2022-09-13T06:17:56;24.50;44.70
6986;DHT22;3533;51.246;6.850;2022-09-13T06:20:21;24.50;44.70
6986;DHT22;3533;51.246;6.850;2022-09-13T06:22:48;24.50;44.70
6986;DHT22;3533;51.246;6.850;2022-09-13T06:25:14;24.50;44.70
6986;DHT22;3533;51.246;6.850;2022-09-13T06:27:39;24.50;44.70
6986;DHT22;3533;51.246;6.850;2022-09-13T06:30:05;24.50;44.70
6986;DHT22;3533;51.246;6.850;2022-09-13T06:32:36;24.50;44.70
6986;DHT22;3533;51.246;6.850;2022-09-13T06:35:01;24.50;44.60
6986;DHT22;3533;51.246;6.850;2022-09-13T06:37:27;24.50;44.70
6986;DHT22;3533;51.246;6.850;2022-09-13T06:39:52;24.50;44.70
6986;DHT22;3533;51.246;6.850;2022-09-13T06:42:18;24.50;44.70
6986;DHT22;3533;51.246;6.850;2022-09-13T06:44:43;24.50;44.70
6986;DHT22;3533;51.246;6.850;2022-09-13T06:47:11;24.50;44.70
6986;DHT22;3533;51.246;6.850;2022-09-13T06:49:37;24.50;44.70
6986;DHT22;3533;51.246;6.850;2022-09-13T06:52:04;24.50;44.70
6986;DHT22;3533;51.246;6.850;2022-09-13T06:54:29;24.50;44.70
6986;DHT22;3533;51.246;6.850;2022-09-13T06:56:55;24.50;44.70
6986;DHT22;3533;51.246;6.850;2022-09-13T06:59:20;24.50;44.70
6986;DHT22;3533;51.246;6.850;2022-09-13T07:01:46;24.50;44.70
6986;DHT22;3533;51.246;6.850;2022-09-13T07:04:14;24.50;44.70
6986;DHT22;3533;51.246;6.850;2022-09-13T07:06:45;24.50;44.60
6986;DHT22;3533;51.246;6.850;2022-09-13T07:09:14;24.50;44.60
6986;DHT22;3533;51.246;6.850;2022-09-13T07:11:42;24.50;44.70
6986;DHT22;3533;51.246;6.850;2022-09-13T07:14:13;24.50;44.60
6986;DHT22;3533;51.246;6.850;2022-09-13T07:16:39;24.50;44.80
6986;DHT22;3533;51.246;6.850;2022-09-13T07:19:07;24.50;44.70
6986;DHT22;3533;51.246;6.850;2022-09-13T07:21:36;24.50;44.70
6986;DHT22;3533;51.246;6.850;2022-09-13T07:24:01;24.50;44.70
6986;DHT22;3533;51.246;6.850;2022-09-13T07:26:27;24.50;44.70
6986;DHT22;3533;51.246;6.850;2022-09-13T07:28:55;24.50;44.70
6986;DHT22;3533;51.246;6.850;2022-09-13T07:31:24;24.50;44.70
6986;DHT22;3533;51.246;6.850;2022-09-13T07:33:57;24.50;44.70
6986;DHT22;3533;51.246;6.850;2022-09-13T07:36:24;24.50;44.70
6986;DHT22;3533;51.246;6.850;2022-09-13T07:38:50;24.50;44.70
6986;DHT22;3533;51.246;6.850;2022-09-13T07:41:18;24.50;44.70
6986;DHT22;3533;51.246;6.850;2022-09-13T07:43:44;24.50;44.70
6986;DHT22;3533;51.246;6.850;2022-09-13T07:46:12;24.50;44.70
6986;DHT22;3533;51.246;6.850;2022-09-13T07:48:40;24.50;44.70
6986;DHT22;3533;51.246;6.850;2022-09-13T07:51:17;24.60;44.70
6986;DHT22;3533;51.246;6.850;2022-09-13T07:53:44;24.60;44.70
6986;DHT22;3533;51.246;6.850;2022-09-13T07:56:21;24.60;44.70
6986;DHT22;3533;51.246;6.850;2022-09-13T07:58:48;24.60;44.80
6986;DHT22;3533;51.246;6.850;2022-09-13T08:01:25;24.60;44.80
6986;DHT22;3533;51.246;6.850;2022-09-13T08:03:56;24.60;44.80
6986;DHT22;3533;51.246;6.850;2022-09-13T08:06:24;24.70;44.90
6986;DHT22;3533;51.246;6.850;2022-09-13T08:08:50;24.70;44.90
6986;DHT22;3533;51.246;6.850;2022-09-13T08:14:01;24.70;44.80
6986;DHT22;3533;51.246;6.850;2022-09-13T08:16:28;24.70;44.90
6986;DHT22;3533;51.246;6.850;2022-09-13T08:18:56;24.70;44.90
6986;DHT22;3533;51.246;6.850;2022-09-13T08:21:23;24.70;45.00
6986;DHT22;3533;51.246;6.850;2022-09-13T08:23:49;24.70;45.10
6986;DHT22;3533;51.246;6.850;2022-09-13T08:26:18;24.70;45.00
6986;DHT22;3533;51.246;6.850;2022-09-13T08:28:43;24.70;45.00
6986;DHT22;3533;51.246;6.850;2022-09-13T08:31:12;24.70;45.00
6986;DHT22;3533;51.246;6.850;2022-09-13T08:33:42;24.70;45.10
6986;DHT22;3533;51.246;6.850;2022-09-13T08:36:08;24.70;45.10
6986;DHT22;3533;51.246;6.850;2022-09-13T08:38:33;24.70;45.10
6986;DHT22;3533;51.246;6.850;2022-09-13T08:41:02;24.70;45.10
6986;DHT22;3533;51.246;6.850;2022-09-13T08:43:42;24.70;45.10
6986;DHT22;3533;51.246;6.850;2022-09-13T08:46:12;24.70;45.10
6986;DHT22;3533;51.246;6.850;2022-09-13T08:48:42;24.70;45.20
6986;DHT22;3533;51.246;6.850;2022-09-13T08:51:33;24.70;45.20
6986;DHT22;3533;51.246;6.850;2022-09-13T08:54:02;24.70;45.10
6986;DHT22;3533;51.246;6.850;2022-09-13T08:59:40;24.60;45.00
6986;DHT22;3533;51.246;6.850;2022-09-13T09:02:34;24.70;45.10
6986;DHT22;3533;51.246;6.850;2022-09-13T09:05:15;24.70;45.20
6986;DHT22;3533;51.246;6.850;2022-09-13T09:10:23;24.70;45.10
6986;DHT22;3533;51.246;6.850;2022-09-13T09:12:56;24.70;45.20
6986;DHT22;3533;51.246;6.850;2022-09-13T09:15:32;24.70;45.10
6986;DHT22;3533;51.246;6.850;2022-09-13T09:18:05;24.70;45.10
6986;DHT22;3533;51.246;6.850;2022-09-13T09:20:54;24.70;45.10
6986;DHT22;3533;51.246;6.850;2022-09-13T09:23:35;24.70;45.00
6986;DHT22;3533;51.246;6.850;2022-09-13T09:26:24;24.70;45.00
6986;DHT22;3533;51.246;6.850;2022-09-13T09:28:57;24.70;45.00
6986;DHT22;3533;51.246;6.850;2022-09-13T09:34:26;24.70;45.00
6986;DHT22;3533;51.246;6.850;2022-09-13T09:37:07;24.70;45.10
6986;DHT22;3533;51.246;6.850;2022-09-13T09:39:37;24.70;45.10
6986;DHT22;3533;51.246;6.850;2022-09-13T09:42:12;24.70;45.10
6986;DHT22;3533;51.246;6.850;2022-09-13T09:44:43;24.70;45.00
6986;DHT22;3533;51.246;6.850;2022-09-13T09:47:18;24.70;45.00
6986;DHT22;3533;51.246;6.850;2022-09-13T09:49:53;24.70;45.00
6986;DHT22;3533;51.246;6.850;2022-09-13T09:55:31;24.70;45.00
6986;DHT22;3533;51.246;6.850;2022-09-13T09:58:01;24.70;45.10
6986;DHT22;3533;51.246;6.850;2022-09-13T10:00:32;24.70;45.00
6986;DHT22;3533;51.246;6.850;2022-09-13T10:03:06;24.70;45.10
6986;DHT22;3533;51.246;6.850;2022-09-13T10:05:34;24.70;45.00
6986;DHT22;3533;51.246;6.850;2022-09-13T10:08:02;24.70;45.00
6986;DHT22;3533;51.246;6.850;2022-09-13T10:10:41;24.70;45.00
6986;DHT22;3533;51.246;6.850;2022-09-13T10:13:21;24.70;45.00
6986;DHT22;3533;51.246;6.850;2022-09-13T10:15:59;24.70;45.00
6986;DHT22;3533;51.246;6.850;2022-09-13T10:18:30;24.70;45.00
6986;DHT22;3533;51.246;6.850;2022-09-13T10:23:31;24.70;45.00
6986;DHT22;3533;51.246;6.850;2022-09-13T10:26:09;24.70;45.00
6986;DHT22;3533;51.246;6.850;2022-09-13T10:31:17;24.70;45.00
6986;DHT22;3533;51.246;6.850;2022-09-13T10:36:21;24.70;45.10
6986;DHT22;3533;51.246;6.850;2022-09-13T10:38:59;24.70;45.00
6986;DHT22;3533;51.246;6.850;2022-09-13T10:41:28;24.70;45.00
6986;DHT22;3533;51.246;6.850;2022-09-13T10:43:59;24.70;45.00
6986;DHT22;3533;51.246;6.850;2022-09-13T10:46:30;24.70;45.00
6986;DHT22;3533;51.246;6.850;2022-09-13T10:48:57;24.70;45.00
6986;DHT22;3533;51.246;6.850;2022-09-13T10:54:19;24.70;45.00
6986;DHT22;3533;51.246;6.850;2022-09-13T10:56:48;24.70;44.90
6986;DHT22;3533;51.246;6.850;2022-09-13T10:59:25;24.70;45.00
6986;DHT22;3533;51.246;6.850;2022-09-13T11:11:00;24.70;45.00
6986;DHT22;3533;51.246;6.850;2022-09-13T11:27:21;24.60;44.90
6986;DHT22;3533;51.246;6.850;2022-09-13T11:30:10;24.60;45.00
6986;DHT22;3533;51.246;6.850;2022-09-13T11:33:08;24.60;44.90
6986;DHT22;3533;51.246;6.850;2022-09-13T11:36:00;24.60;45.00
6986;DHT22;3533;51.246;6.850;2022-09-13T11:55:19;24.60;44.90
6986;DHT22;3533;51.246;6.850;2022-09-13T11:57:51;24.60;45.00
6986;DHT22;3533;51.246;6.850;2022-09-13T12:00:23;24.60;45.00
6986;DHT22;3533;51.246;6.850;2022-09-13T12:06:10;24.60;45.00
6986;DHT22;3533;51.246;6.850;2022-09-13T12:08:41;24.60;45.00
6986;DHT22;3533;51.246;6.850;2022-09-13T12:11:19;24.60;45.10
6986;DHT22;3533;51.246;6.850;2022-09-13T12:13:55;24.60;45.10
6986;DHT22;3533;51.246;6.850;2022-09-13T12:16:28;24.60;45.10
6986;DHT22;3533;51.246;6.850;2022-09-13T12:18:58;24.60;45.10
6986;DHT22;3533;51.246;6.850;2022-09-13T12:21:29;24.60;45.10
6986;DHT22;3533;51.246;6.850;2022-09-13T12:26:42;24.60;45.10
6986;DHT22;3533;51.246;6.850;2022-09-13T12:29:59;24.60;45.10
6986;DHT22;3533;51.246;6.850;2022-09-13T12:32:06;24.60;45.10
6986;DHT22;3533;51.246;6.850;2022-09-13T12:37:11;24.60;45.10
6986;DHT22;3533;51.246;6.850;2022-09-13T12:42:46;24.60;45.10
6986;DHT22;3533;51.246;6.850;2022-09-13T12:48:13;24.60;45.10
6986;DHT22;3533;51.246;6.850;2022-09-13T12:50:54;24.60;45.10
6986;DHT22;3533;51.246;6.850;2022-09-13T12:56:31;24.60;45.10
6986;DHT22;3533;51.246;6.850;2022-09-13T13:01:48;24.60;45.10
6986;DHT22;3533;51.246;6.850;2022-09-13T13:04:31;24.70;45.20
6986;DHT22;3533;51.246;6.850;2022-09-13T13:07:00;24.60;45.10
6986;DHT22;3533;51.246;6.850;2022-09-13T13:09:42;24.60;45.10
6986;DHT22;3533;51.246;6.850;2022-09-13T13:12:32;24.70;45.20
6986;DHT22;3533;51.246;6.850;2022-09-13T13:14:56;24.60;45.10
6986;DHT22;3533;51.246;6.850;2022-09-13T13:23:29;24.60;45.20
6986;DHT22;3533;51.246;6.850;2022-09-13T13:57:31;24.70;45.30
6986;DHT22;3533;51.246;6.850;2022-09-13T14:00:21;24.70;45.30
6986;DHT22;3533;51.246;6.850;2022-09-13T14:08:54;24.70;45.30
6986;DHT22;3533;51.246;6.850;2022-09-13T14:11:37;24.60;45.20
6986;DHT22;3533;51.246;6.850;2022-09-13T14:19:49;24.60;45.20
6986;DHT22;3533;51.246;6.850;2022-09-13T14:22:22;24.60;45.20
6986;DHT22;3533;51.246;6.850;2022-09-13T14:24:53;24.60;45.30
6986;DHT22;3533;51.246;6.850;2022-09-13T14:27:22;24.60;45.30
6986;DHT22;3533;51.246;6.850;2022-09-13T14:29:52;24.70;45.40
6986;DHT22;3533;51.246;6.850;2022-09-13T14:32:21;24.70;45.40
6986;DHT22;3533;51.246;6.850;2022-09-13T14:35:01;24.70;45.40
6986;DHT22;3533;51.246;6.850;2022-09-13T14:37:33;24.70;45.30
6986;DHT22;3533;51.246;6.850;2022-09-13T14:42:42;24.70;45.30
6986;DHT22;3533;51.246;6.850;2022-09-13T14:45:16;24.70;45.30
6986;DHT22;3533;51.246;6.850;2022-09-13T14:47:53;24.70;45.40
6986;DHT22;3533;51.246;6.850;2022-09-13T14:50:33;24.70;45.40
6986;DHT22;3533;51.246;6.850;2022-09-13T14:53:04;24.70;45.40
6986;DHT22;3533;51.246;6.850;2022-09-13T14:55:49;24.60;45.30
6986;DHT22;3533;51.246;6.850;2022-09-13T14:58:23;24.60;45.30
6986;DHT22;3533;51.246;6.850;2022-09-13T15:01:01;24.60;45.40
6986;DHT22;3533;51.246;6.850;2022-09-13T15:03:28;24.60;45.40
6986;DHT22;3533;51.246;6.850;2022-09-13T15:05:59;24.60;45.30
6986;DHT22;3533;51.246;6.850;2022-09-13T15:10:58;24.60;45.30
6986;DHT22;3533;51.246;6.850;2022-09-13T15:13:24;24.60;45.30
6986;DHT22;3533;51.246;6.850;2022-09-13T15:15:49;24.60;45.40
6986;DHT22;3533;51.246;6.850;2022-09-13T15:21:01;24.60;45.40
6986;DHT22;3533;51.246;6.850;2022-09-13T15:23:49;24.60;45.30
6986;DHT22;3533;51.246;6.850;2022-09-13T15:26:21;24.60;46.10
6986;DHT22;3533;51.246;6.850;2022-09-13T15:28:52;24.60;45.30
6986;DHT22;3533;51.246;6.850;2022-09-13T15:31:33;24.60;45.30
6986;DHT22;3533;51.246;6.850;2022-09-13T15:36:44;24.60;45.30
6986;DHT22;3533;51.246;6.850;2022-09-13T15:39:18;24.60;45.30
6986;DHT22;3533;51.246;6.850;2022-09-13T15:41:54;24.60;45.30
6986;DHT22;3533;51.246;6.850;2022-09-13T15:44:21;24.60;45.30
6986;DHT22;3533;51.246;6.850;2022-09-13T15:46:53;24.60;45.40
6986;DHT22;3533;51.246;6.850;2022-09-13T15:49:26;24.60;45.40
6986;DHT22;3533;51.246;6.850;2022-09-13T15:51:54;24.60;45.30
6986;DHT22;3533;51.246;6.850;2022-09-13T15:54:20;24.60;45.30
6986;DHT22;3533;51.246;6.850;2022-09-13T15:56:49;24.60;45.30
6986;DHT22;3533;51.246;6.850;2022-09-13T15:59:19;24.60;45.30
6986;DHT22;3533;51.246;6.850;2022-09-13T16:01:47;24.60;45.30
6986;DHT22;3533;51.246;6.850;2022-09-13T16:04:13;24.60;45.30
6986;DHT22;3533;51.246;6.850;2022-09-13T16:06:40;24.60;45.30
6986;DHT22;3533;51.246;6.850;2022-09-13T16:09:17;24.60;45.20
6986;DHT22;3533;51.246;6.850;2022-09-13T16:11:43;24.70;45.30
6986;DHT22;3533;51.246;6.850;2022-09-13T16:14:09;24.60;45.30
6986;DHT22;3533;51.246;6.850;2022-09-13T16:16:34;24.70;45.30
6986;DHT22;3533;51.246;6.850;2022-09-13T16:19:00;24.70;45.30
6986;DHT22;3533;51.246;6.850;2022-09-13T16:21:25;24.70;45.30
6986;DHT22;3533;51.246;6.850;2022-09-13T16:23:51;24.70;45.20
6986;DHT22;3533;51.246;6.850;2022-09-13T16:26:17;24.70;45.20
6986;DHT22;3533;51.246;6.850;2022-09-13T16:28:42;24.70;45.30
6986;DHT22;3533;51.246;6.850;2022-09-13T16:31:08;24.70;45.20
6986;DHT22;3533;51.246;6.850;2022-09-13T16:33:33;24.70;45.20
6986;DHT22;3533;51.246;6.850;2022-09-13T16:35:59;24.70;45.20
6986;DHT22;3533;51.246;6.850;2022-09-13T16:38:24;24.70;45.20
6986;DHT22;3533;51.246;6.850;2022-09-13T16:40:50;24.70;45.20
6986;DHT22;3533;51.246;6.850;2022-09-13T16:43:15;24.70;45.20
6986;DHT22;3533;51.246;6.850;2022-09-13T16:45:42;24.70;45.10
6986;DHT22;3533;51.246;6.850;2022-09-13T16:48:09;24.70;45.10
6986;DHT22;3533;51.246;6.850;2022-09-13T16:50:38;24.70;45.10
6986;DHT22;3533;51.246;6.850;2022-09-13T16:53:04;24.70;45.20
6986;DHT22;3533;51.246;6.850;2022-09-13T16:55:30;24.70;45.10
6986;DHT22;3533;51.246;6.850;2022-09-13T16:57:55;24.70;45.10
6986;DHT22;3533;51.246;6.850;2022-09-13T17:00:21;24.70;45.10
6986;DHT22;3533;51.246;6.850;2022-09-13T17:02:48;24.70;45.10
6986;DHT22;3533;51.246;6.850;2022-09-13T17:05:14;24.70;45.10
6986;DHT22;3533;51.246;6.850;2022-09-13T17:07:40;24.70;45.10
6986;DHT22;3533;51.246;6.850;2022-09-13T17:10:06;24.70;45.10
6986;DHT22;3533;51.246;6.850;2022-09-13T17:12:33;24.70;45.10
6986;DHT22;3533;51.246;6.850;2022-09-13T17:14:59;24.70;45.90
6986;DHT22;3533;51.246;6.850;2022-09-13T17:17:25;24.70;45.10
6986;DHT22;3533;51.246;6.850;2022-09-13T17:19:51;24.70;45.10
6986;DHT22;3533;51.246;6.850;2022-09-13T17:22:17;24.70;45.10
6986;DHT22;3533;51.246;6.850;2022-09-13T17:24:42;24.70;45.10
6986;DHT22;3533;51.246;6.850;2022-09-13T17:27:09;24.70;45.10
6986;DHT22;3533;51.246;6.850;2022-09-13T17:29:36;24.70;45.10
6986;DHT22;3533;51.246;6.850;2022-09-13T17:32:03;24.70;45.10
6986;DHT22;3533;51.246;6.850;2022-09-13T17:34:30;24.70;45.00
6986;DHT22;3533;51.246;6.850;2022-09-13T17:36:56;24.70;45.10
6986;DHT22;3533;51.246;6.850;2022-09-13T17:39:22;24.70;45.10
6986;DHT22;3533;51.246;6.850;2022-09-13T17:41:48;24.70;45.10
6986;DHT22;3533;51.246;6.850;2022-09-13T17:44:14;24.70;45.10
6986;DHT22;3533;51.246;6.850;2022-09-13T17:46:40;24.70;45.00
6986;DHT22;3533;51.246;6.850;2022-09-13T17:49:06;24.70;45.10
6986;DHT22;3533;51.246;6.850;2022-09-13T17:51:32;24.70;45.10
6986;DHT22;3533;51.246;6.850;2022-09-13T17:54:02;24.70;45.10
6986;DHT22;3533;51.246;6.850;2022-09-13T17:56:29;24.70;45.20
6986;DHT22;3533;51.246;6.850;2022-09-13T17:58:56;24.70;45.10
6986;DHT22;3533;51.246;6.850;2022-09-13T18:01:26;24.70;45.10
6986;DHT22;3533;51.246;6.850;2022-09-13T18:03:53;24.70;45.10
6986;DHT22;3533;51.246;6.850;2022-09-13T18:06:19;24.70;45.20
6986;DHT22;3533;51.246;6.850;2022-09-13T18:08:45;24.70;45.20
6986;DHT22;3533;51.246;6.850;2022-09-13T18:11:13;24.70;45.20
6986;DHT22;3533;51.246;6.850;2022-09-13T18:13:40;24.70;45.20
6986;DHT22;3533;51.246;6.850;2022-09-13T18:16:13;24.80;45.30
6986;DHT22;3533;51.246;6.850;2022-09-13T18:18:39;24.80;45.20
6986;DHT22;3533;51.246;6.850;2022-09-13T18:21:05;24.80;45.20
6986;DHT22;3533;51.246;6.850;2022-09-13T18:23:32;24.80;45.20
6986;DHT22;3533;51.246;6.850;2022-09-13T18:26:00;24.80;45.30
6986;DHT22;3533;51.246;6.850;2022-09-13T18:28:27;24.80;45.20
6986;DHT22;3533;51.246;6.850;2022-09-13T18:30:57;24.80;45.30
6986;DHT22;3533;51.246;6.850;2022-09-13T18:33:24;24.80;45.20
6986;DHT22;3533;51.246;6.850;2022-09-13T18:36:01;24.80;45.30
6986;DHT22;3533;51.246;6.850;2022-09-13T18:38:30;24.70;45.10
6986;DHT22;3533;51.246;6.850;2022-09-13T18:43:35;24.70;45.20
6986;DHT22;3533;51.246;6.850;2022-09-13T18:46:03;24.70;45.20
6986;DHT22;3533;51.246;6.850;2022-09-13T18:48:35;24.80;45.40
6986;DHT22;3533;51.246;6.850;2022-09-13T18:51:02;24.70;45.30
6986;DHT22;3533;51.246;6.850;2022-09-13T18:53:28;24.70;45.30
6986;DHT22;3533;51.246;6.850;2022-09-13T18:55:54;24.70;45.30
6986;DHT22;3533;51.246;6.850;2022-09-13T18:58:22;24.70;45.30
6986;DHT22;3533;51.246;6.850;2022-09-13T19:01:09;24.70;45.30
6986;DHT22;3533;51.246;6.850;2022-09-13T19:03:36;24.70;45.30
6986;DHT22;3533;51.246;6.850;2022-09-13T19:06:08;24.70;45.30
6986;DHT22;3533;51.246;6.850;2022-09-13T19:08:34;24.70;45.30
6986;DHT22;3533;51.246;6.850;2022-09-13T19:11:00;24.80;45.40
6986;DHT22;3533;51.246;6.850;2022-09-13T19:13:30;24.80;45.40
6986;DHT22;3533;51.246;6.850;2022-09-13T19:16:04;24.80;45.40
6986;DHT22;3533;51.246;6.850;2022-09-13T19:18:31;24.80;45.30
6986;DHT22;3533;51.246;6.850;2022-09-13T19:21:08;24.80;46.10
6986;DHT22;3533;51.246;6.850;2022-09-13T19:23:35;24.80;45.40
6986;DHT22;3533;51.246;6.850;2022-09-13T19:26:21;24.80;45.30
6986;DHT22;3533;51.246;6.850;2022-09-13T19:28:52;24.80;45.30
6986;DHT22;3533;51.246;6.850;2022-09-13T19:31:21;24.80;45.40
6986;DHT22;3533;51.246;6.850;2022-09-13T19:33:48;24.80;45.40
6986;DHT22;3533;51.246;6.850;2022-09-13T19:36:16;24.80;45.40
6986;DHT22;3533;51.246;6.850;2022-09-13T19:38:43;24.80;45.40